Wind From: 11-12-2017 04:25 Until: 16:00 warning for: Wind Level: Orange info button

Power and phone distribution networks may be disrupted for relatively long periods., Roofs and chimneys can be damaged. , Tree branches may break. , Vehicles can be deported. , Traffic may be disrupted, particularly on secondary roads in forest areas. Limit your trips. , Limit your speed in highway driving, especially if you drive a vehicle or hitch sensitive to wind. , Do not go for walks in forests or along the coast., In town, be vigilant against possible falling objects., Do not work on roofs and do not touch any electrical line fallen on the ground., Store or secure sensitive objects to wind or likely to be damaged., Always install power generators outside buildings. 


Meteo18 Weather Cam more information Meteo18 Weather Cam


Thunder radar more information blitzortung!


Rain radar more information rain snow radar


Visit our other weather sites:

Template documentation
and downloads

And another site



Weather Underground History page Text

Daily Summary for October 22, 2017 Units:  English    Metric   Both
« Previous Day
Next Day »
Daily Weekly Monthly Yearly Custom
  High: Low: Average:
Temperature: 55 °F 45.7 °F 49.5 °F
Dew Point: 45.7 °F 41.5 °F 44.4 °F
Humidity: 92 % 61 % 83 %
Wind Speed: 17 mph 0 mph 6.1 mph
Wind Gust: 28 mph - -
Wind:- - WSW
Pressure: 30.3 in 30.2 in -
Precipitation: 0.02 in    
Historical Graphs
 
 
Tabular Data for October 22, 2017
Time Temperature Dew Point Pressure Wind Wind Speed Wind Gust Humidity Rainfall Rate (Hourly)
00:02 50.4 °F 45.7 °F 30.2 in SW 9 mph 15 mph 84 % 0 in
00:12 50.4 °F 45.7 °F 30.2 in WSW 5 mph 14 mph 84 % 0 in
00:17 50.4 °F 45.7 °F 30.2 in WSW 5 mph 14 mph 84 % 0 in
00:22 50.4 °F 45.7 °F 30.2 in SSW 9 mph 14 mph 84 % 0 in
00:27 50.2 °F 45.5 °F 30.2 in SW 6 mph 14 mph 84 % 0 in
00:32 50.2 °F 45.5 °F 30.2 in SW 6 mph 13 mph 84 % 0 in
00:37 50 °F 45.3 °F 30.2 in WSW 9 mph 13 mph 84 % 0 in
00:42 49.8 °F 45.5 °F 30.2 in WSW 12 mph 14 mph 85 % 0 in
00:47 49.8 °F 45.5 °F 30.2 in SSW 3 mph 14 mph 85 % 0 in
00:52 49.8 °F 45.5 °F 30.2 in SW 6 mph 14 mph 85 % 0 in
00:57 49.6 °F 45.3 °F 30.2 in SW 9 mph 14 mph 85 % 0 in
01:02 49.6 °F 45.3 °F 30.2 in SW 6 mph 14 mph 85 % 0 in
01:12 49.3 °F 45.3 °F 30.2 in SW 10 mph 12 mph 86 % 0 in
01:17 49.1 °F 45.1 °F 30.2 in SW 10 mph 13 mph 86 % 0 in
01:22 48.9 °F 45.1 °F 30.2 in WSW 6 mph 13 mph 87 % 0 in
01:32 48.7 °F 45 °F 30.2 in South 6 mph 13 mph 87 % 0 in
01:37 48.7 °F 45.3 °F 30.2 in SW 7 mph 13 mph 88 % 0 in
01:42 48.7 °F 45.3 °F 30.2 in SSW 6 mph 13 mph 88 % 0 in
01:47 48.6 °F 45.1 °F 30.2 in WSW 4 mph 12 mph 88 % 0 in
01:52 48.6 °F 45.1 °F 30.2 in SW 8 mph 12 mph 88 % 0 in
02:02 48.4 °F 45 °F 30.2 in WSW 10 mph 12 mph 88 % 0 in
02:07 48.4 °F 45 °F 30.2 in WSW 3 mph 12 mph 88 % 0 in
02:12 48.2 °F 44.8 °F 30.2 in SW 5 mph 12 mph 88 % 0 in
02:17 47.8 °F 44.8 °F 30.2 in WSW 6 mph 12 mph 89 % 0 in
02:22 47.8 °F 44.8 °F 30.2 in SW 5 mph 11 mph 89 % 0 in
02:32 47.7 °F 44.6 °F 30.2 in SW 6 mph 11 mph 89 % 0 in
02:42 47.7 °F 44.6 °F 30.2 in SW 3 mph 10 mph 89 % 0 in
02:52 47.7 °F 44.6 °F 30.2 in WSW 8 mph 10 mph 89 % 0 in
02:57 47.7 °F 44.6 °F 30.2 in WSW 3 mph 14 mph 89 % 0 in
03:02 47.5 °F 44.4 °F 30.2 in SW 8 mph 14 mph 89 % 0 in
03:12 47.5 °F 44.4 °F 30.2 in SSW 3 mph 13 mph 89 % 0 in
03:17 47.3 °F 44.2 °F 30.2 in WSW 5 mph 13 mph 89 % 0 in
03:22 47.3 °F 44.2 °F 30.2 in SW 4 mph 13 mph 89 % 0 in
03:32 47.1 °F 44.1 °F 30.2 in SW 7 mph 9 mph 89 % 0 in
03:42 46.6 °F 43.9 °F 30.2 in SW 5 mph 8 mph 90 % 0 in
03:52 46 °F 43.3 °F 30.2 in SSW 3 mph 7 mph 90 % 0 in
04:02 46 °F 43.5 °F 30.2 in SW 3 mph 8 mph 91 % 0 in
04:12 46 °F 43.5 °F 30.2 in SSW 3 mph 11 mph 91 % 0 in
04:17 45.9 °F 43.3 °F 30.2 in SW 3 mph 11 mph 91 % 0 in
04:32 45.9 °F 43.3 °F 30.2 in SW 3 mph 11 mph 91 % 0 in
04:37 46 °F 43.9 °F 30.2 in SW 8 mph 9 mph 92 % 0 in
04:42 46.2 °F 43.7 °F 30.2 in WSW 5 mph 9 mph 91 % 0 in
04:52 46.4 °F 43.9 °F 30.2 in SW 4 mph 9 mph 91 % 0 in
05:02 46.4 °F 43.9 °F 30.2 in SW 5 mph 8 mph 91 % 0 in
05:07 46.4 °F 43.9 °F 30.2 in SW 8 mph 9 mph 91 % 0 in
05:22 46.2 °F 43.7 °F 30.2 in SW 6 mph 9 mph 91 % 0 in
05:32 46.2 °F 43.7 °F 30.2 in WSW 4 mph 7 mph 91 % 0 in
05:37 46.2 °F 43.7 °F 30.2 in WSW 4 mph 10 mph 91 % 0 in
05:42 46.2 °F 43.7 °F 30.2 in SW 6 mph 10 mph 91 % 0 in
05:47 46.2 °F 43.7 °F 30.2 in SSW 2 mph 11 mph 91 % 0 in
05:52 46.2 °F 43.7 °F 30.2 in SW 7 mph 11 mph 91 % 0 in
05:57 46.2 °F 43.7 °F 30.2 in SW 6 mph 11 mph 91 % 0 in
06:02 46.2 °F 43.7 °F 30.2 in WSW 3 mph 11 mph 91 % 0 in
06:12 46 °F 43.5 °F 30.2 in SW 8 mph 10 mph 91 % 0 in
06:17 46 °F 43.5 °F 30.2 in SSW 9 mph 10 mph 91 % 0 in
06:22 46 °F 43.5 °F 30.2 in WSW 5 mph 10 mph 91 % 0 in
06:32 45.9 °F 43.7 °F 30.2 in SW 3 mph 10 mph 92 % 0 in
06:42 45.9 °F 43.7 °F 30.2 in SW 7 mph 10 mph 92 % 0 in
06:47 45.9 °F 43.7 °F 30.2 in SW 7 mph 11 mph 92 % 0 in
06:52 45.9 °F 43.7 °F 30.2 in SW 7 mph 11 mph 92 % 0 in
07:02 46 °F 43.5 °F 30.2 in West 5 mph 12 mph 91 % 0 in
07:12 46.2 °F 43.7 °F 30.2 in WSW 6 mph 12 mph 91 % 0 in
07:17 46.2 °F 43.7 °F 30.2 in SW 8 mph 12 mph 91 % 0 in
07:22 46.4 °F 43.9 °F 30.2 in SW 5 mph 12 mph 91 % 0 in
07:32 46.4 °F 43.9 °F 30.2 in West 6 mph 12 mph 91 % 0 in
07:42 46.2 °F 43.5 °F 30.2 in West 6 mph 12 mph 90 % 0 in
07:47 46.2 °F 43.5 °F 30.2 in SW 6 mph 15 mph 90 % 0 in
07:52 46.2 °F 43.5 °F 30.2 in WSW 3 mph 15 mph 90 % 0 in
08:02 46 °F 43.3 °F 30.2 in SW 8 mph 15 mph 90 % 0 in
08:12 46 °F 43.3 °F 30.2 in WSW 8 mph 16 mph 90 % 0 in
08:17 45.9 °F 43.2 °F 30.2 in SW 7 mph 16 mph 90 % 0 in
08:22 45.9 °F 43.3 °F 30.2 in WSW 6 mph 16 mph 91 % 0 in
08:32 45.7 °F 43.2 °F 30.2 in WSW 7 mph 13 mph 91 % 0 in
08:42 45.7 °F 43.2 °F 30.2 in West 6 mph 13 mph 91 % 0 in
08:52 45.7 °F 43.2 °F 30.2 in WSW 5 mph 13 mph 91 % 0 in
09:02 45.7 °F 43.2 °F 30.2 in West 9 mph 12 mph 91 % 0 in
09:12 45.9 °F 43.3 °F 30.2 in West 6 mph 12 mph 91 % 0 in
09:17 46 °F 43.3 °F 30.2 in West 5 mph 12 mph 90 % 0 in
09:22 46.2 °F 43.5 °F 30.2 in WSW 8 mph 12 mph 90 % 0 in
09:27 46.4 °F 43.7 °F 30.2 in SW 8 mph 12 mph 90 % 0 in
09:32 46.6 °F 43.9 °F 30.2 in WSW 6 mph 12 mph 90 % 0 in
09:42 46.8 °F 44.1 °F 30.2 in SW 7 mph 12 mph 90 % 0 in
09:47 46.9 °F 43.9 °F 30.2 in SW 10 mph 12 mph 89 % 0 in
09:52 47.1 °F 44.1 °F 30.2 in WSW 10 mph 12 mph 89 % 0 in
09:57 47.5 °F 44.1 °F 30.2 in WSW 9 mph 15 mph 88 % 0 in
10:07 47.8 °F 44.2 °F 30.2 in West 5 mph 16 mph 87 % 0 in
10:12 48.2 °F 44.2 °F 30.2 in WSW 6 mph 16 mph 86 % 0 in
10:17 48.4 °F 44.4 °F 30.2 in West 14 mph 18 mph 86 % 0 in
10:22 48.6 °F 44.6 °F 30.2 in West 5 mph 18 mph 86 % 0 in
10:32 48.7 °F 44.4 °F 30.2 in WSW 9 mph 18 mph 85 % 0 in
10:42 49.3 °F 44.6 °F 30.2 in WSW 6 mph 15 mph 84 % 0 in
10:47 49.5 °F 44.8 °F 30.2 in West 12 mph 15 mph 84 % 0 in
10:52 49.5 °F 44.6 °F 30.2 in West 7 mph 15 mph 83 % 0 in
11:02 49.8 °F 44.8 °F 30.2 in WSW 9 mph 17 mph 83 % 0 in
11:12 50.4 °F 45.3 °F 30.2 in WSW 5 mph 17 mph 83 % 0 in
11:17 50.4 °F 44.8 °F 30.2 in WNW 7 mph 15 mph 81 % 0 in
11:22 50.5 °F 45 °F 30.2 in WSW 8 mph 15 mph 81 % 0 in
11:32 50.9 °F 45.3 °F 30.2 in WSW 9 mph 16 mph 81 % 0 in
11:37 50.9 °F 44.6 °F 30.2 in WSW 10 mph 16 mph 79 % 0 in
11:42 51.3 °F 45.3 °F 30.2 in West 2 mph 16 mph 80 % 0 in
11:47 51.4 °F 45.1 °F 30.2 in WNW 8 mph 17 mph 79 % 0 in
11:52 51.6 °F 45 °F 30.2 in West 6 mph 17 mph 78 % 0 in
11:57 51.8 °F 45.1 °F 30.2 in West 8 mph 16 mph 78 % 0 in
12:07 52 °F 44.6 °F 30.2 in WSW 4 mph 16 mph 76 % 0 in
12:12 52.3 °F 45 °F 30.2 in West 9 mph 16 mph 76 % 0 in
12:17 52.5 °F 45.1 °F 30.2 in West 9 mph 16 mph 76 % 0 in
12:22 52.5 °F 45.5 °F 30.2 in WSW 7 mph 16 mph 77 % 0 in
12:27 52.3 °F 43.9 °F 30.2 in WSW 11 mph 17 mph 73 % 0 in
12:42 53.6 °F 45.1 °F 30.2 in West 10 mph 16 mph 73 % 0 in
12:52 54 °F 45.1 °F 30.2 in SW 15 mph 19 mph 72 % 0 in
12:57 53.6 °F 44.1 °F 30.2 in WNW 11 mph 19 mph 70 % 0 in
13:02 54 °F 44.1 °F 30.2 in West 14 mph 19 mph 69 % 0 in
13:12 54.3 °F 44.4 °F 30.2 in West 13 mph 24 mph 69 % 0 in
13:17 54.1 °F 43.3 °F 30.2 in NW 17 mph 24 mph 67 % 0 in
13:22 54 °F 43.7 °F 30.2 in WSW 6 mph 24 mph 68 % 0 in
13:32 53.4 °F 43.9 °F 30.2 in West 6 mph 21 mph 70 % 0 in
13:37 53.2 °F 43.7 °F 30.2 in WSW 8 mph 17 mph 70 % 0 in
13:42 53.4 °F 43.5 °F 30.2 in West 5 mph 17 mph 69 % 0 in
13:47 53.4 °F 43.5 °F 30.2 in WNW 10 mph 14 mph 69 % 0 in
13:57 53.1 °F 43.9 °F 30.2 in WSW 6 mph 18 mph 71 % 0 in
14:02 53.1 °F 43.2 °F 30.2 in WNW 6 mph 18 mph 69 % 0 in
14:12 54 °F 43.7 °F 30.2 in WSW 9 mph 15 mph 68 % 0 in
14:17 54.1 °F 43.9 °F 30.2 in WNW 6 mph 13 mph 68 % 0 in
14:22 54.1 °F 43.3 °F 30.2 in WNW 4 mph 13 mph 67 % 0 in
14:27 54.9 °F 43.3 °F 30.2 in West 13 mph 16 mph 65 % 0 in
14:32 54.7 °F 42.3 °F 30.2 in SW 16 mph 16 mph 63 % 0 in
14:42 54.7 °F 41.5 °F 30.2 in WSW 8 mph 20 mph 61 % 0 in
14:47 54.9 °F 42.1 °F 30.2 in West 7 mph 21 mph 62 % 0 in
14:52 54.7 °F 41.9 °F 30.2 in West 16 mph 21 mph 62 % 0 in
15:02 54.7 °F 42.8 °F 30.2 in WNW 4 mph 24 mph 64 % 0 in
15:07 55 °F 43.2 °F 30.2 in West 9 mph 18 mph 64 % 0 in
15:12 54.7 °F 42.3 °F 30.2 in West 16 mph 18 mph 63 % 0 in
15:17 52.7 °F 43.2 °F 30.2 in West 8 mph 28 mph 70 % 0 in
15:22 52.3 °F 43.5 °F 30.2 in WNW 11 mph 28 mph 72 % 0 in
15:32 52.9 °F 43 °F 30.2 in NW 6 mph 25 mph 69 % 0 in
15:37 53.4 °F 43.5 °F 30.2 in WSW 9 mph 16 mph 69 % 0 in
15:42 53.2 °F 43.3 °F 30.2 in West 7 mph 16 mph 69 % 0 in
15:47 53.2 °F 43.7 °F 30.2 in West 5 mph 12 mph 70 % 0 in
15:52 53.8 °F 44.2 °F 30.2 in WNW 5 mph 12 mph 70 % 0 in
15:57 54 °F 43.7 °F 30.2 in West 11 mph 12 mph 68 % 0 in
16:02 54 °F 43.7 °F 30.2 in WSW 11 mph 12 mph 68 % 0 in
16:07 54 °F 43.7 °F 30.2 in West 8 mph 16 mph 68 % 0 in
16:12 53.8 °F 43.5 °F 30.2 in West 7 mph 16 mph 68 % 0 in
16:17 53.8 °F 43.5 °F 30.2 in NW 9 mph 16 mph 68 % 0 in
16:22 53.8 °F 43.5 °F 30.2 in NW 3 mph 16 mph 68 % 0 in
16:32 53.2 °F 43.7 °F 30.2 in West 14 mph 14 mph 70 % 0 in
16:37 51.6 °F 45 °F 30.2 in WNW 10 mph 19 mph 78 % 0 in
16:42 50.7 °F 44.8 °F 30.2 in WNW 5 mph 19 mph 80 % 0.01 in
16:47 50.5 °F 45 °F 30.2 in West 2 mph 19 mph 81 % 0.01 in
16:52 50.4 °F 45.1 °F 30.2 in NW 2 mph 19 mph 82 % 0.01 in
16:57 50.4 °F 44.8 °F 30.2 in WNW 7 mph 10 mph 81 % 0.01 in
17:02 50.5 °F 44.6 °F 30.2 in WNW 9 mph 10 mph 80 % 0.01 in
17:12 51.1 °F 44.8 °F 30.2 in West 10 mph 18 mph 79 % 0.01 in
17:22 50.9 °F 45 °F 30.2 in WSW 5 mph 18 mph 80 % 0.01 in
17:27 50.5 °F 44.6 °F 30.2 in WNW 5 mph 12 mph 80 % 0.01 in
17:32 50.5 °F 45 °F 30.2 in WNW 5 mph 12 mph 81 % 0.01 in
17:37 50.4 °F 44.8 °F 30.2 in West 6 mph 9 mph 81 % 0.01 in
17:42 50.4 °F 44.8 °F 30.2 in WNW 5 mph 9 mph 81 % 0 in
17:47 50.5 °F 45 °F 30.2 in West 4 mph 8 mph 81 % 0 in
17:52 50.4 °F 45.1 °F 30.2 in WNW 1 mph 8 mph 82 % 0.01 in
17:57 50.4 °F 45.1 °F 30.2 in WNW 5 mph 8 mph 82 % 0.01 in
18:02 50.4 °F 45.1 °F 30.2 in West 3 mph 8 mph 82 % 0.01 in
18:12 50.4 °F 45.1 °F 30.2 in Calm   8 mph 82 % 0.01 in
18:17 50.2 °F 45 °F 30.2 in WSW 3 mph 8 mph 82 % 0.01 in
18:22 50.2 °F 45 °F 30.2 in WNW 4 mph 7 mph 82 % 0.01 in
18:27 50.2 °F 45 °F 30.2 in West 2 mph 7 mph 82 % 0.01 in
18:32 50 °F 44.8 °F 30.2 in West 2 mph 6 mph 82 % 0.01 in
18:37 49.8 °F 44.6 °F 30.2 in West 5 mph 6 mph 82 % 0.01 in
18:42 49.8 °F 44.8 °F 30.2 in WNW 1 mph 8 mph 83 % 0.01 in
18:47 49.8 °F 44.8 °F 30.2 in WSW 4 mph 7 mph 83 % 0.01 in
18:52 49.8 °F 44.8 °F 30.2 in West 5 mph 7 mph 83 % 0 in
19:02 49.6 °F 44.8 °F 30.2 in West 4 mph 11 mph 83 % 0 in
19:07 49.6 °F 44.8 °F 30.2 in WSW 3 mph 8 mph 83 % 0 in
19:12 49.6 °F 44.8 °F 30.2 in WSW 3 mph 8 mph 83 % 0 in
19:17 49.6 °F 44.8 °F 30.2 in Calm   7 mph 83 % 0 in
19:22 49.6 °F 44.8 °F 30.2 in WSW 1 mph 7 mph 83 % 0 in
19:32 49.3 °F 44.6 °F 30.2 in SW 1 mph 5 mph 84 % 0 in
19:37 49.3 °F 44.6 °F 30.3 in WSW 2 mph 4 mph 84 % 0 in
19:42 49.3 °F 44.6 °F 30.3 in WSW 2 mph 4 mph 84 % 0 in
19:47 49.1 °F 44.4 °F 30.3 in West 4 mph 7 mph 84 % 0 in
19:52 49.3 °F 44.4 °F 30.3 in WSW 5 mph 7 mph 83 % 0 in
19:57 49.3 °F 44.4 °F 30.3 in WSW 4 mph 8 mph 83 % 0 in
20:02 49.3 °F 44.4 °F 30.3 in West 2 mph 8 mph 83 % 0 in
20:12 48.9 °F 44.1 °F 30.3 in WSW 3 mph 8 mph 83 % 0 in
20:17 48.9 °F 44.1 °F 30.3 in WSW 3 mph 7 mph 83 % 0 in
20:22 48.9 °F 44.1 °F 30.3 in West 3 mph 7 mph 83 % 0 in
20:32 48.7 °F 44.1 °F 30.3 in West 3 mph 7 mph 84 % 0 in
20:42 48.6 °F 43.9 °F 30.3 in WNW 2 mph 8 mph 84 % 0 in
20:47 48.6 °F 43.9 °F 30.3 in SW 4 mph 7 mph 84 % 0 in
20:52 48.4 °F 44.1 °F 30.3 in WNW 4 mph 7 mph 85 % 0 in
21:02 48.6 °F 43.9 °F 30.3 in West 5 mph 8 mph 84 % 0 in
21:07 48.7 °F 44.4 °F 30.3 in West 6 mph 8 mph 85 % 0 in
21:12 48.9 °F 44.2 °F 30.3 in WSW 5 mph 8 mph 84 % 0 in
21:22 48.9 °F 44.2 °F 30.3 in West 6 mph 12 mph 84 % 0 in
21:27 48.9 °F 44.2 °F 30.3 in WSW 7 mph 10 mph 84 % 0 in
21:32 48.7 °F 44.4 °F 30.3 in SW 7 mph 10 mph 85 % 0 in
21:37 48.9 °F 44.6 °F 30.3 in West 4 mph 10 mph 85 % 0 in
21:42 48.7 °F 44.8 °F 30.3 in WSW 10 mph 10 mph 86 % 0 in
21:47 48.7 °F 45 °F 30.3 in West 3 mph 10 mph 87 % 0 in
21:52 48.7 °F 45 °F 30.3 in West 1 mph 10 mph 87 % 0 in
21:57 48.7 °F 44.8 °F 30.3 in SW 3 mph 10 mph 86 % 0 in
22:02 48.7 °F 45 °F 30.3 in SW 4 mph 10 mph 87 % 0 in
22:07 48.7 °F 45 °F 30.3 in WSW 7 mph 8 mph 87 % 0 in
22:12 48.7 °F 45 °F 30.3 in West 2 mph 8 mph 87 % 0 in
22:17 48.7 °F 45 °F 30.3 in WSW 2 mph 8 mph 87 % 0 in
22:22 48.9 °F 45.1 °F 30.3 in WSW 2 mph 8 mph 87 % 0 in
22:32 48.9 °F 45 °F 30.3 in WSW 4 mph 7 mph 86 % 0 in
22:37 49.1 °F 45.1 °F 30.3 in WSW 5 mph 7 mph 86 % 0 in
22:42 49.3 °F 45.3 °F 30.3 in WSW 3 mph 7 mph 86 % 0 in
22:47 49.3 °F 45.3 °F 30.3 in WSW 5 mph 8 mph 86 % 0 in
22:52 49.3 °F 45.3 °F 30.3 in West 2 mph 8 mph 86 % 0 in
22:57 49.3 °F 45.3 °F 30.3 in WSW 3 mph 8 mph 86 % 0 in
23:02 49.3 °F 45.3 °F 30.3 in WSW 2 mph 8 mph 86 % 0 in
23:12 49.3 °F 45.3 °F 30.3 in WSW 4 mph 8 mph 86 % 0 in
23:17 49.3 °F 45.3 °F 30.3 in WSW 6 mph 7 mph 86 % 0 in
23:22 49.3 °F 45.3 °F 30.3 in West 4 mph 7 mph 86 % 0 in
23:32 49.5 °F 45.5 °F 30.3 in SW 6 mph 10 mph 86 % 0 in
23:37 49.6 °F 45.3 °F 30.3 in West 6 mph 12 mph 85 % 0 in
23:42 49.6 °F 45.3 °F 30.3 in SW 3 mph 12 mph 85 % 0 in
23:47 49.6 °F 45.3 °F 30.3 in WSW 6 mph 10 mph 85 % 0 in
23:57 49.6 °F 45.3 °F 30.3 in SW 5 mph 11 mph 85 % 0 in
Meteo18
Compliments of Weather Underground - 4 mb

Script developed by  Jim McMurry - jmcmurry@mwt.net Adapted for the template by  Wim van der Kuil - Leuven-Template.eu

You find our weather info also at:

European Weather Network

Weather Underground

Equipment we use:

Weather-station
Davis Vue

Weather-program
Meteohub

Weather-server
Raspberry PI 2 B+

Provider
1 and 1

Davis Vue

Meteohub

Raspberry PI 2 B+

1 and 1